Lebanon, New York
Current Conditions -  °F | °C
As of 7:01 PM on Wednesday 26 Nov 2014 (Local Time) from KRME Reporting Station
Light Snow Light Snow  
Wind Chill: 22°   Ceiling: 2000
Heat Index: 30°   Visibility: 2mi
Dew Point: 28°   Wind: 9mph
Humidity: 92%   Direction: 310°NW
Pressure: 30.04"   Gusts: NA
Location:  42.7586°N, 75.5621°W
Report Text: KRME 270001Z 31008KT 2SM -SN BR FEW012 OVC020 M01/M02 A3004 RMK AO2 P0000 T10111022
Loading
Personal Weather Stations






























Interactive Weather Map New forecast layout! Learn more

10-Day Weather Forecast

Advertisements
Track Severe Weather on mobile